sensor_id;sensor_type;location;lat;lon;timestamp;P1;P2;P0
63305;PMS5003;50735;52.060;1.248;2023-02-08T00:01:27;76;70;
63305;PMS5003;50735;52.060;1.248;2023-02-08T00:03:54;83;72;
63305;PMS5003;50735;52.060;1.248;2023-02-08T00:06:20;91;76;
63305;PMS5003;50735;52.060;1.248;2023-02-08T00:08:47;77;65;
63305;PMS5003;50735;52.060;1.248;2023-02-08T00:11:14;84;71;
63305;PMS5003;50735;52.060;1.248;2023-02-08T00:13:41;80;73;
63305;PMS5003;50735;52.060;1.248;2023-02-08T00:16:08;96;73;
63305;PMS5003;50735;52.060;1.248;2023-02-08T00:18:36;88;71;
63305;PMS5003;50735;52.060;1.248;2023-02-08T00:21:05;64;55;
63305;PMS5003;50735;52.060;1.248;2023-02-08T00:23:33;83;68;
63305;PMS5003;50735;52.060;1.248;2023-02-08T00:26:00;76;70;
63305;PMS5003;50735;52.060;1.248;2023-02-08T00:28:28;85;74;
63305;PMS5003;50735;52.060;1.248;2023-02-08T00:30:55;80;65;
63305;PMS5003;50735;52.060;1.248;2023-02-08T00:33:22;86;68;
63305;PMS5003;50735;52.060;1.248;2023-02-08T00:35:49;74;67;
63305;PMS5003;50735;52.060;1.248;2023-02-08T00:38:17;80;67;
63305;PMS5003;50735;52.060;1.248;2023-02-08T00:40:44;78;66;
63305;PMS5003;50735;52.060;1.248;2023-02-08T00:43:10;87;68;
63305;PMS5003;50735;52.060;1.248;2023-02-08T00:45:37;78;72;
63305;PMS5003;50735;52.060;1.248;2023-02-08T00:48:04;89;71;
63305;PMS5003;50735;52.060;1.248;2023-02-08T00:50:32;74;68;
63305;PMS5003;50735;52.060;1.248;2023-02-08T00:52:58;74;65;
63305;PMS5003;50735;52.060;1.248;2023-02-08T00:55:25;95;74;
63305;PMS5003;50735;52.060;1.248;2023-02-08T00:57:53;79;66;
63305;PMS5003;50735;52.060;1.248;2023-02-08T01:00:20;84;72;
63305;PMS5003;50735;52.060;1.248;2023-02-08T01:02:47;87;67;
63305;PMS5003;50735;52.060;1.248;2023-02-08T01:05:14;79;66;
63305;PMS5003;50735;52.060;1.248;2023-02-08T01:07:41;84;65;
63305;PMS5003;50735;52.060;1.248;2023-02-08T01:10:08;79;71;
63305;PMS5003;50735;52.060;1.248;2023-02-08T01:12:36;77;68;
63305;PMS5003;50735;52.060;1.248;2023-02-08T01:15:02;85;67;
63305;PMS5003;50735;52.060;1.248;2023-02-08T01:17:29;72;65;
63305;PMS5003;50735;52.060;1.248;2023-02-08T01:19:57;79;60;
63305;PMS5003;50735;52.060;1.248;2023-02-08T01:22:23;85;69;
63305;PMS5003;50735;52.060;1.248;2023-02-08T01:24:50;86;66;
63305;PMS5003;50735;52.060;1.248;2023-02-08T01:27:17;86;69;
63305;PMS5003;50735;52.060;1.248;2023-02-08T01:29:43;78;66;
63305;PMS5003;50735;52.060;1.248;2023-02-08T01:32:10;70;63;
63305;PMS5003;50735;52.060;1.248;2023-02-08T01:34:37;73;67;
63305;PMS5003;50735;52.060;1.248;2023-02-08T01:37:04;74;66;
63305;PMS5003;50735;52.060;1.248;2023-02-08T01:39:30;78;64;
63305;PMS5003;50735;52.060;1.248;2023-02-08T01:41:58;71;65;
63305;PMS5003;50735;52.060;1.248;2023-02-08T01:45:30;72;62;
63305;PMS5003;50735;52.060;1.248;2023-02-08T01:48:00;69;58;
63305;PMS5003;50735;52.060;1.248;2023-02-08T01:50:33;75;64;
63305;PMS5003;50735;52.060;1.248;2023-02-08T01:53:06;75;58;
63305;PMS5003;50735;52.060;1.248;2023-02-08T01:55:34;79;68;
63305;PMS5003;50735;52.060;1.248;2023-02-08T01:58:05;85;65;
63305;PMS5003;50735;52.060;1.248;2023-02-08T02:00:35;69;59;
63305;PMS5003;50735;52.060;1.248;2023-02-08T02:03:02;72;60;
63305;PMS5003;50735;52.060;1.248;2023-02-08T02:05:32;75;64;
63305;PMS5003;50735;52.060;1.248;2023-02-08T02:08:04;75;62;
63305;PMS5003;50735;52.060;1.248;2023-02-08T02:10:32;79;61;
63305;PMS5003;50735;52.060;1.248;2023-02-08T02:13:01;71;59;
63305;PMS5003;50735;52.060;1.248;2023-02-08T02:15:31;76;58;
63305;PMS5003;50735;52.060;1.248;2023-02-08T02:17:59;85;70;
63305;PMS5003;50735;52.060;1.248;2023-02-08T02:20:30;71;59;
63305;PMS5003;50735;52.060;1.248;2023-02-08T02:23:12;74;67;
63305;PMS5003;50735;52.060;1.248;2023-02-08T02:26:02;74;62;
63305;PMS5003;50735;52.060;1.248;2023-02-08T02:31:11;69;64;
63305;PMS5003;50735;52.060;1.248;2023-02-08T02:34:20;74;65;
63305;PMS5003;50735;52.060;1.248;2023-02-08T02:36:59;74;64;
63305;PMS5003;50735;52.060;1.248;2023-02-08T02:39:36;71;57;
63305;PMS5003;50735;52.060;1.248;2023-02-08T02:42:11;81;63;
63305;PMS5003;50735;52.060;1.248;2023-02-08T02:44:45;69;54;
63305;PMS5003;50735;52.060;1.248;2023-02-08T02:47:23;74;58;
63305;PMS5003;50735;52.060;1.248;2023-02-08T02:49:58;79;66;
63305;PMS5003;50735;52.060;1.248;2023-02-08T02:52:33;72;60;
63305;PMS5003;50735;52.060;1.248;2023-02-08T02:55:06;71;65;
63305;PMS5003;50735;52.060;1.248;2023-02-08T02:57:36;75;66;
63305;PMS5003;50735;52.060;1.248;2023-02-08T03:00:08;65;59;
63305;PMS5003;50735;52.060;1.248;2023-02-08T03:02:38;71;58;
63305;PMS5003;50735;52.060;1.248;2023-02-08T03:05:05;70;59;
63305;PMS5003;50735;52.060;1.248;2023-02-08T03:07:41;70;61;
63305;PMS5003;50735;52.060;1.248;2023-02-08T03:10:28;74;56;
63305;PMS5003;50735;52.060;1.248;2023-02-08T03:13:06;71;64;
63305;PMS5003;50735;52.060;1.248;2023-02-08T03:15:45;58;49;
63305;PMS5003;50735;52.060;1.248;2023-02-08T03:18:26;67;57;
63305;PMS5003;50735;52.060;1.248;2023-02-08T03:21:01;72;60;
63305;PMS5003;50735;52.060;1.248;2023-02-08T03:23:36;61;52;
63305;PMS5003;50735;52.060;1.248;2023-02-08T03:26:07;67;58;
63305;PMS5003;50735;52.060;1.248;2023-02-08T03:28:45;57;50;
63305;PMS5003;50735;52.060;1.248;2023-02-08T03:31:21;51;43;
63305;PMS5003;50735;52.060;1.248;2023-02-08T03:33:55;58;45;
63305;PMS5003;50735;52.060;1.248;2023-02-08T03:36:28;44;44;
63305;PMS5003;50735;52.060;1.248;2023-02-08T03:39:00;43;37;
63305;PMS5003;50735;52.060;1.248;2023-02-08T03:41:32;49;41;
63305;PMS5003;50735;52.060;1.248;2023-02-08T03:44:03;50;37;
63305;PMS5003;50735;52.060;1.248;2023-02-08T03:46:36;49;39;
63305;PMS5003;50735;52.060;1.248;2023-02-08T03:49:06;45;41;
63305;PMS5003;50735;52.060;1.248;2023-02-08T03:51:35;42;37;
63305;PMS5003;50735;52.060;1.248;2023-02-08T03:54:03;53;43;
63305;PMS5003;50735;52.060;1.248;2023-02-08T03:56:34;45;39;
63305;PMS5003;50735;52.060;1.248;2023-02-08T03:59:06;48;43;
63305;PMS5003;50735;52.060;1.248;2023-02-08T04:01:43;39;32;
63305;PMS5003;50735;52.060;1.248;2023-02-08T04:04:14;38;37;
63305;PMS5003;50735;52.060;1.248;2023-02-08T04:06:43;52;42;
63305;PMS5003;50735;52.060;1.248;2023-02-08T04:09:10;60;46;
63305;PMS5003;50735;52.060;1.248;2023-02-08T04:11:37;43;40;
63305;PMS5003;50735;52.060;1.248;2023-02-08T04:14:04;48;37;
63305;PMS5003;50735;52.060;1.248;2023-02-08T04:16:30;47;42;
63305;PMS5003;50735;52.060;1.248;2023-02-08T04:18:57;39;31;
63305;PMS5003;50735;52.060;1.248;2023-02-08T04:21:24;51;44;
63305;PMS5003;50735;52.060;1.248;2023-02-08T04:23:51;46;39;
63305;PMS5003;50735;52.060;1.248;2023-02-08T04:26:17;38;31;
63305;PMS5003;50735;52.060;1.248;2023-02-08T04:28:44;48;39;
63305;PMS5003;50735;52.060;1.248;2023-02-08T04:31:11;37;37;
63305;PMS5003;50735;52.060;1.248;2023-02-08T04:33:37;36;33;
63305;PMS5003;50735;52.060;1.248;2023-02-08T04:36:05;50;39;
63305;PMS5003;50735;52.060;1.248;2023-02-08T04:38:32;36;31;
63305;PMS5003;50735;52.060;1.248;2023-02-08T04:40:59;40;32;
63305;PMS5003;50735;52.060;1.248;2023-02-08T04:43:26;45;39;
63305;PMS5003;50735;52.060;1.248;2023-02-08T04:45:52;51;38;
63305;PMS5003;50735;52.060;1.248;2023-02-08T04:48:19;36;30;
63305;PMS5003;50735;52.060;1.248;2023-02-08T04:50:46;34;33;
63305;PMS5003;50735;52.060;1.248;2023-02-08T04:53:13;38;28;
63305;PMS5003;50735;52.060;1.248;2023-02-08T04:55:40;33;31;
63305;PMS5003;50735;52.060;1.248;2023-02-08T04:58:07;33;30;
63305;PMS5003;50735;52.060;1.248;2023-02-08T05:00:34;30;24;
63305;PMS5003;50735;52.060;1.248;2023-02-08T05:03:01;27;24;
63305;PMS5003;50735;52.060;1.248;2023-02-08T05:05:28;30;30;
63305;PMS5003;50735;52.060;1.248;2023-02-08T05:07:55;22;22;
63305;PMS5003;50735;52.060;1.248;2023-02-08T05:10:22;39;32;
63305;PMS5003;50735;52.060;1.248;2023-02-08T05:12:48;34;28;
63305;PMS5003;50735;52.060;1.248;2023-02-08T05:15:15;44;31;
63305;PMS5003;50735;52.060;1.248;2023-02-08T05:17:41;35;32;
63305;PMS5003;50735;52.060;1.248;2023-02-08T05:20:09;33;25;
63305;PMS5003;50735;52.060;1.248;2023-02-08T05:22:38;36;32;
63305;PMS5003;50735;52.060;1.248;2023-02-08T05:25:05;37;30;
63305;PMS5003;50735;52.060;1.248;2023-02-08T05:27:33;44;31;
63305;PMS5003;50735;52.060;1.248;2023-02-08T05:30:00;36;32;
63305;PMS5003;50735;52.060;1.248;2023-02-08T05:32:27;35;29;
63305;PMS5003;50735;52.060;1.248;2023-02-08T05:34:54;44;33;
63305;PMS5003;50735;52.060;1.248;2023-02-08T05:37:20;45;38;
63305;PMS5003;50735;52.060;1.248;2023-02-08T05:39:47;38;33;
63305;PMS5003;50735;52.060;1.248;2023-02-08T05:42:15;56;43;
63305;PMS5003;50735;52.060;1.248;2023-02-08T05:44:41;55;48;
63305;PMS5003;50735;52.060;1.248;2023-02-08T05:47:09;51;47;
63305;PMS5003;50735;52.060;1.248;2023-02-08T05:49:36;69;53;
63305;PMS5003;50735;52.060;1.248;2023-02-08T05:52:03;62;48;
63305;PMS5003;50735;52.060;1.248;2023-02-08T05:54:30;67;53;
63305;PMS5003;50735;52.060;1.248;2023-02-08T05:56:57;58;48;
63305;PMS5003;50735;52.060;1.248;2023-02-08T05:59:24;58;44;
63305;PMS5003;50735;52.060;1.248;2023-02-08T06:01:51;58;49;
63305;PMS5003;50735;52.060;1.248;2023-02-08T06:04:18;50;41;
63305;PMS5003;50735;52.060;1.248;2023-02-08T06:06:45;64;48;
63305;PMS5003;50735;52.060;1.248;2023-02-08T06:09:12;51;43;
63305;PMS5003;50735;52.060;1.248;2023-02-08T06:11:39;58;47;
63305;PMS5003;50735;52.060;1.248;2023-02-08T06:14:06;57;45;
63305;PMS5003;50735;52.060;1.248;2023-02-08T06:16:32;49;37;
63305;PMS5003;50735;52.060;1.248;2023-02-08T06:18:59;49;43;
63305;PMS5003;50735;52.060;1.248;2023-02-08T06:21:26;47;40;
63305;PMS5003;50735;52.060;1.248;2023-02-08T06:23:53;46;41;
63305;PMS5003;50735;52.060;1.248;2023-02-08T06:26:20;53;43;
63305;PMS5003;50735;52.060;1.248;2023-02-08T06:28:47;44;41;
63305;PMS5003;50735;52.060;1.248;2023-02-08T06:31:14;38;35;
63305;PMS5003;50735;52.060;1.248;2023-02-08T06:33:41;49;38;
63305;PMS5003;50735;52.060;1.248;2023-02-08T06:36:08;48;38;
63305;PMS5003;50735;52.060;1.248;2023-02-08T06:38:35;56;45;
63305;PMS5003;50735;52.060;1.248;2023-02-08T06:41:01;57;46;
63305;PMS5003;50735;52.060;1.248;2023-02-08T06:43:28;58;47;
63305;PMS5003;50735;52.060;1.248;2023-02-08T06:45:55;70;55;
63305;PMS5003;50735;52.060;1.248;2023-02-08T06:48:21;53;45;
63305;PMS5003;50735;52.060;1.248;2023-02-08T06:50:48;43;37;
63305;PMS5003;50735;52.060;1.248;2023-02-08T06:53:17;48;38;
63305;PMS5003;50735;52.060;1.248;2023-02-08T06:55:46;54;45;
63305;PMS5003;50735;52.060;1.248;2023-02-08T06:58:13;45;42;
63305;PMS5003;50735;52.060;1.248;2023-02-08T07:00:40;48;41;
63305;PMS5003;50735;52.060;1.248;2023-02-08T07:03:07;48;41;
63305;PMS5003;50735;52.060;1.248;2023-02-08T07:05:35;53;47;
63305;PMS5003;50735;52.060;1.248;2023-02-08T07:08:02;45;40;
63305;PMS5003;50735;52.060;1.248;2023-02-08T07:10:30;53;46;
63305;PMS5003;50735;52.060;1.248;2023-02-08T07:12:57;55;47;
63305;PMS5003;50735;52.060;1.248;2023-02-08T07:15:24;54;47;
63305;PMS5003;50735;52.060;1.248;2023-02-08T07:17:51;52;45;
63305;PMS5003;50735;52.060;1.248;2023-02-08T07:20:18;41;37;
63305;PMS5003;50735;52.060;1.248;2023-02-08T07:22:44;58;48;
63305;PMS5003;50735;52.060;1.248;2023-02-08T07:25:11;59;48;
63305;PMS5003;50735;52.060;1.248;2023-02-08T07:27:37;59;45;
63305;PMS5003;50735;52.060;1.248;2023-02-08T07:30:05;51;42;
63305;PMS5003;50735;52.060;1.248;2023-02-08T07:32:33;47;36;
63305;PMS5003;50735;52.060;1.248;2023-02-08T07:35:00;57;46;
63305;PMS5003;50735;52.060;1.248;2023-02-08T07:37:27;52;41;
63305;PMS5003;50735;52.060;1.248;2023-02-08T07:39:55;66;52;
63305;PMS5003;50735;52.060;1.248;2023-02-08T07:42:21;58;51;
63305;PMS5003;50735;52.060;1.248;2023-02-08T07:44:48;52;43;
63305;PMS5003;50735;52.060;1.248;2023-02-08T07:47:15;54;44;
63305;PMS5003;50735;52.060;1.248;2023-02-08T07:49:42;54;47;
63305;PMS5003;50735;52.060;1.248;2023-02-08T07:52:08;63;52;
63305;PMS5003;50735;52.060;1.248;2023-02-08T07:54:35;56;45;
63305;PMS5003;50735;52.060;1.248;2023-02-08T07:57:02;49;47;
63305;PMS5003;50735;52.060;1.248;2023-02-08T07:59:29;44;41;
63305;PMS5003;50735;52.060;1.248;2023-02-08T08:01:56;58;47;
63305;PMS5003;50735;52.060;1.248;2023-02-08T08:04:23;52;42;
63305;PMS5003;50735;52.060;1.248;2023-02-08T08:06:50;55;41;
63305;PMS5003;50735;52.060;1.248;2023-02-08T08:09:17;56;46;
63305;PMS5003;50735;52.060;1.248;2023-02-08T08:11:44;53;43;
63305;PMS5003;50735;52.060;1.248;2023-02-08T08:14:10;47;39;
63305;PMS5003;50735;52.060;1.248;2023-02-08T08:16:37;42;37;
63305;PMS5003;50735;52.060;1.248;2023-02-08T08:19:04;39;37;
63305;PMS5003;50735;52.060;1.248;2023-02-08T08:21:31;62;46;
63305;PMS5003;50735;52.060;1.248;2023-02-08T08:23:57;51;40;
63305;PMS5003;50735;52.060;1.248;2023-02-08T08:26:24;49;34;
63305;PMS5003;50735;52.060;1.248;2023-02-08T08:28:51;43;42;
63305;PMS5003;50735;52.060;1.248;2023-02-08T08:31:18;38;35;
63305;PMS5003;50735;52.060;1.248;2023-02-08T08:33:47;57;40;
63305;PMS5003;50735;52.060;1.248;2023-02-08T08:36:14;45;35;
63305;PMS5003;50735;52.060;1.248;2023-02-08T08:38:41;42;38;
63305;PMS5003;50735;52.060;1.248;2023-02-08T08:41:08;50;40;
63305;PMS5003;50735;52.060;1.248;2023-02-08T08:43:35;46;27;
63305;PMS5003;50735;52.060;1.248;2023-02-08T08:46:03;41;32;
63305;PMS5003;50735;52.060;1.248;2023-02-08T08:48:32;43;38;
63305;PMS5003;50735;52.060;1.248;2023-02-08T08:48:32;41;37;
63305;PMS5003;50735;52.060;1.248;2023-02-08T08:50:59;35;30;
63305;PMS5003;50735;52.060;1.248;2023-02-08T08:53:26;42;32;
63305;PMS5003;50735;52.060;1.248;2023-02-08T08:55:52;38;35;
63305;PMS5003;50735;52.060;1.248;2023-02-08T08:58:19;49;44;
63305;PMS5003;50735;52.060;1.248;2023-02-08T09:00:47;49;38;
63305;PMS5003;50735;52.060;1.248;2023-02-08T09:03:14;48;40;
63305;PMS5003;50735;52.060;1.248;2023-02-08T09:05:41;56;43;
63305;PMS5003;50735;52.060;1.248;2023-02-08T09:08:08;58;40;
63305;PMS5003;50735;52.060;1.248;2023-02-08T09:10:34;58;44;
63305;PMS5003;50735;52.060;1.248;2023-02-08T09:13:02;43;34;
63305;PMS5003;50735;52.060;1.248;2023-02-08T09:15:28;37;33;
63305;PMS5003;50735;52.060;1.248;2023-02-08T09:17:55;45;36;
63305;PMS5003;50735;52.060;1.248;2023-02-08T09:20:21;47;39;
63305;PMS5003;50735;52.060;1.248;2023-02-08T09:22:48;48;35;
63305;PMS5003;50735;52.060;1.248;2023-02-08T09:25:15;49;43;
63305;PMS5003;50735;52.060;1.248;2023-02-08T09:27:42;46;38;
63305;PMS5003;50735;52.060;1.248;2023-02-08T09:30:10;39;39;
63305;PMS5003;50735;52.060;1.248;2023-02-08T09:32:37;42;35;
63305;PMS5003;50735;52.060;1.248;2023-02-08T09:35:04;38;31;
63305;PMS5003;50735;52.060;1.248;2023-02-08T09:37:31;43;29;
63305;PMS5003;50735;52.060;1.248;2023-02-08T09:39:58;39;36;
63305;PMS5003;50735;52.060;1.248;2023-02-08T09:42:27;30;28;
63305;PMS5003;50735;52.060;1.248;2023-02-08T09:45:15;35;34;
63305;PMS5003;50735;52.060;1.248;2023-02-08T09:47:54;39;33;
63305;PMS5003;50735;52.060;1.248;2023-02-08T09:50:30;36;28;
63305;PMS5003;50735;52.060;1.248;2023-02-08T09:53:01;40;36;
63305;PMS5003;50735;52.060;1.248;2023-02-08T09:55:35;47;37;
63305;PMS5003;50735;52.060;1.248;2023-02-08T09:58:06;46;41;
63305;PMS5003;50735;52.060;1.248;2023-02-08T10:00:44;39;34;
63305;PMS5003;50735;52.060;1.248;2023-02-08T10:03:18;36;32;
63305;PMS5003;50735;52.060;1.248;2023-02-08T10:05:52;40;37;
63305;PMS5003;50735;52.060;1.248;2023-02-08T10:08:19;42;38;
63305;PMS5003;50735;52.060;1.248;2023-02-08T10:10:48;45;42;
63305;PMS5003;50735;52.060;1.248;2023-02-08T10:13:24;40;37;
63305;PMS5003;50735;52.060;1.248;2023-02-08T10:16:12;45;38;
63305;PMS5003;50735;52.060;1.248;2023-02-08T10:18:51;37;36;
63305;PMS5003;50735;52.060;1.248;2023-02-08T10:21:30;40;39;
63305;PMS5003;50735;52.060;1.248;2023-02-08T10:24:08;33;30;
63305;PMS5003;50735;52.060;1.248;2023-02-08T10:26:48;40;37;
63305;PMS5003;50735;52.060;1.248;2023-02-08T10:29:32;42;35;
63305;PMS5003;50735;52.060;1.248;2023-02-08T10:32:14;50;43;
63305;PMS5003;50735;52.060;1.248;2023-02-08T10:34:53;44;38;
63305;PMS5003;50735;52.060;1.248;2023-02-08T10:37:26;44;39;
63305;PMS5003;50735;52.060;1.248;2023-02-08T10:39:56;39;38;
63305;PMS5003;50735;52.060;1.248;2023-02-08T10:42:39;43;38;
63305;PMS5003;50735;52.060;1.248;2023-02-08T10:45:14;42;39;
63305;PMS5003;50735;52.060;1.248;2023-02-08T10:47:44;38;35;
63305;PMS5003;50735;52.060;1.248;2023-02-08T10:50:16;38;36;
63305;PMS5003;50735;52.060;1.248;2023-02-08T10:52:48;44;37;
63305;PMS5003;50735;52.060;1.248;2023-02-08T10:55:15;38;36;
63305;PMS5003;50735;52.060;1.248;2023-02-08T10:57:43;49;40;
63305;PMS5003;50735;52.060;1.248;2023-02-08T11:00:14;36;33;
63305;PMS5003;50735;52.060;1.248;2023-02-08T11:02:45;49;42;
63305;PMS5003;50735;52.060;1.248;2023-02-08T11:05:12;51;49;
63305;PMS5003;50735;52.060;1.248;2023-02-08T11:07:44;50;47;
63305;PMS5003;50735;52.060;1.248;2023-02-08T11:10:13;53;46;
63305;PMS5003;50735;52.060;1.248;2023-02-08T11:12:52;48;44;
63305;PMS5003;50735;52.060;1.248;2023-02-08T11:12:55;50;45;
63305;PMS5003;50735;52.060;1.248;2023-02-08T11:15:24;57;51;
63305;PMS5003;50735;52.060;1.248;2023-02-08T11:17:56;48;45;
63305;PMS5003;50735;52.060;1.248;2023-02-08T11:20:27;55;48;
63305;PMS5003;50735;52.060;1.248;2023-02-08T11:22:58;51;44;
63305;PMS5003;50735;52.060;1.248;2023-02-08T11:25:30;57;48;
63305;PMS5003;50735;52.060;1.248;2023-02-08T11:27:59;57;50;
63305;PMS5003;50735;52.060;1.248;2023-02-08T11:30:26;60;51;
63305;PMS5003;50735;52.060;1.248;2023-02-08T11:33:26;58;49;
63305;PMS5003;50735;52.060;1.248;2023-02-08T11:35:58;56;51;
63305;PMS5003;50735;52.060;1.248;2023-02-08T11:38:28;57;53;
63305;PMS5003;50735;52.060;1.248;2023-02-08T11:40:57;58;54;
63305;PMS5003;50735;52.060;1.248;2023-02-08T11:43:27;49;46;
63305;PMS5003;50735;52.060;1.248;2023-02-08T11:45:56;58;54;
63305;PMS5003;50735;52.060;1.248;2023-02-08T11:48:26;61;54;
63305;PMS5003;50735;52.060;1.248;2023-02-08T11:51:01;58;53;
63305;PMS5003;50735;52.060;1.248;2023-02-08T11:53:29;60;54;
63305;PMS5003;50735;52.060;1.248;2023-02-08T11:56:00;65;58;
63305;PMS5003;50735;52.060;1.248;2023-02-08T11:58:29;54;49;
63305;PMS5003;50735;52.060;1.248;2023-02-08T12:00:58;60;50;
63305;PMS5003;50735;52.060;1.248;2023-02-08T12:03:27;62;52;
63305;PMS5003;50735;52.060;1.248;2023-02-08T12:06:00;53;49;
63305;PMS5003;50735;52.060;1.248;2023-02-08T12:08:40;68;59;
63305;PMS5003;50735;52.060;1.248;2023-02-08T12:11:15;57;53;
63305;PMS5003;50735;52.060;1.248;2023-02-08T12:13:52;75;63;
63305;PMS5003;50735;52.060;1.248;2023-02-08T12:16:37;64;56;
63305;PMS5003;50735;52.060;1.248;2023-02-08T12:19:20;68;60;
63305;PMS5003;50735;52.060;1.248;2023-02-08T12:22:00;66;58;
63305;PMS5003;50735;52.060;1.248;2023-02-08T12:24:33;67;59;
63305;PMS5003;50735;52.060;1.248;2023-02-08T12:27:13;59;55;
63305;PMS5003;50735;52.060;1.248;2023-02-08T12:29:49;66;63;
63305;PMS5003;50735;52.060;1.248;2023-02-08T12:32:31;68;62;
63305;PMS5003;50735;52.060;1.248;2023-02-08T12:35:13;67;59;
63305;PMS5003;50735;52.060;1.248;2023-02-08T12:37:57;78;64;
63305;PMS5003;50735;52.060;1.248;2023-02-08T12:40:32;63;58;
63305;PMS5003;50735;52.060;1.248;2023-02-08T12:43:08;62;58;
63305;PMS5003;50735;52.060;1.248;2023-02-08T12:45:52;73;60;
63305;PMS5003;50735;52.060;1.248;2023-02-08T12:48:30;67;61;
63305;PMS5003;50735;52.060;1.248;2023-02-08T12:51:10;70;61;
63305;PMS5003;50735;52.060;1.248;2023-02-08T12:53:45;68;57;
63305;PMS5003;50735;52.060;1.248;2023-02-08T12:56:19;61;53;
63305;PMS5003;50735;52.060;1.248;2023-02-08T12:58:51;67;57;
63305;PMS5003;50735;52.060;1.248;2023-02-08T13:01:21;65;56;
63305;PMS5003;50735;52.060;1.248;2023-02-08T13:03:52;52;44;
63305;PMS5003;50735;52.060;1.248;2023-02-08T13:06:25;52;47;
63305;PMS5003;50735;52.060;1.248;2023-02-08T13:08:59;52;49;
63305;PMS5003;50735;52.060;1.248;2023-02-08T13:11:31;50;50;
63305;PMS5003;50735;52.060;1.248;2023-02-08T13:14:03;45;43;
63305;PMS5003;50735;52.060;1.248;2023-02-08T13:16:36;51;43;
63305;PMS5003;50735;52.060;1.248;2023-02-08T13:19:15;45;40;
63305;PMS5003;50735;52.060;1.248;2023-02-08T13:21:49;47;45;
63305;PMS5003;50735;52.060;1.248;2023-02-08T13:24:21;51;43;
63305;PMS5003;50735;52.060;1.248;2023-02-08T13:26:53;51;49;
63305;PMS5003;50735;52.060;1.248;2023-02-08T13:29:21;45;41;
63305;PMS5003;50735;52.060;1.248;2023-02-08T13:31:50;47;44;
63305;PMS5003;50735;52.060;1.248;2023-02-08T13:34:24;52;45;
63305;PMS5003;50735;52.060;1.248;2023-02-08T13:36:55;44;44;
63305;PMS5003;50735;52.060;1.248;2023-02-08T13:39:27;51;44;
63305;PMS5003;50735;52.060;1.248;2023-02-08T13:41:59;48;43;
63305;PMS5003;50735;52.060;1.248;2023-02-08T13:44:29;49;42;
63305;PMS5003;50735;52.060;1.248;2023-02-08T13:46:58;41;41;
63305;PMS5003;50735;52.060;1.248;2023-02-08T13:49:57;44;41;
63305;PMS5003;50735;52.060;1.248;2023-02-08T13:52:58;47;44;
63305;PMS5003;50735;52.060;1.248;2023-02-08T13:55:58;43;35;
63305;PMS5003;50735;52.060;1.248;2023-02-08T13:58:59;39;34;
63305;PMS5003;50735;52.060;1.248;2023-02-08T14:01:27;47;43;
63305;PMS5003;50735;52.060;1.248;2023-02-08T14:04:29;44;41;
63305;PMS5003;50735;52.060;1.248;2023-02-08T14:07:00;47;43;
63305;PMS5003;50735;52.060;1.248;2023-02-08T14:09:38;51;45;
63305;PMS5003;50735;52.060;1.248;2023-02-08T14:12:12;56;46;
63305;PMS5003;50735;52.060;1.248;2023-02-08T14:15:03;45;40;
63305;PMS5003;50735;52.060;1.248;2023-02-08T14:17:32;44;36;
63305;PMS5003;50735;52.060;1.248;2023-02-08T14:20:00;58;47;
63305;PMS5003;50735;52.060;1.248;2023-02-08T14:22:32;42;38;
63305;PMS5003;50735;52.060;1.248;2023-02-08T14:25:03;49;43;
63305;PMS5003;50735;52.060;1.248;2023-02-08T14:27:33;50;38;
63305;PMS5003;50735;52.060;1.248;2023-02-08T14:30:05;42;40;
63305;PMS5003;50735;52.060;1.248;2023-02-08T14:32:35;59;50;
63305;PMS5003;50735;52.060;1.248;2023-02-08T14:35:05;46;45;
63305;PMS5003;50735;52.060;1.248;2023-02-08T14:37:42;50;45;
63305;PMS5003;50735;52.060;1.248;2023-02-08T14:40:47;53;47;
63305;PMS5003;50735;52.060;1.248;2023-02-08T14:40:48;53;47;
63305;PMS5003;50735;52.060;1.248;2023-02-08T14:43:26;57;50;
63305;PMS5003;50735;52.060;1.248;2023-02-08T14:45:56;46;40;
63305;PMS5003;50735;52.060;1.248;2023-02-08T14:49:07;44;37;
63305;PMS5003;50735;52.060;1.248;2023-02-08T14:51:37;42;39;
63305;PMS5003;50735;52.060;1.248;2023-02-08T14:54:17;46;42;
63305;PMS5003;50735;52.060;1.248;2023-02-08T14:56:51;40;38;
63305;PMS5003;50735;52.060;1.248;2023-02-08T14:59:23;51;40;
63305;PMS5003;50735;52.060;1.248;2023-02-08T15:01:54;51;41;
63305;PMS5003;50735;52.060;1.248;2023-02-08T15:04:24;45;39;
63305;PMS5003;50735;52.060;1.248;2023-02-08T15:06:59;44;37;
63305;PMS5003;50735;52.060;1.248;2023-02-08T15:09:38;44;40;
63305;PMS5003;50735;52.060;1.248;2023-02-08T15:12:09;48;42;
63305;PMS5003;50735;52.060;1.248;2023-02-08T15:14:42;52;46;
63305;PMS5003;50735;52.060;1.248;2023-02-08T15:17:18;48;45;
63305;PMS5003;50735;52.060;1.248;2023-02-08T15:19:51;49;43;
63305;PMS5003;50735;52.060;1.248;2023-02-08T15:22:26;52;47;
63305;PMS5003;50735;52.060;1.248;2023-02-08T15:24:57;49;47;
63305;PMS5003;50735;52.060;1.248;2023-02-08T15:27:26;53;49;
63305;PMS5003;50735;52.060;1.248;2023-02-08T15:29:55;57;48;
63305;PMS5003;50735;52.060;1.248;2023-02-08T15:32:23;57;53;
63305;PMS5003;50735;52.060;1.248;2023-02-08T15:34:54;39;32;
63305;PMS5003;50735;52.060;1.248;2023-02-08T15:37:23;52;44;
63305;PMS5003;50735;52.060;1.248;2023-02-08T15:39:52;59;49;
63305;PMS5003;50735;52.060;1.248;2023-02-08T15:42:21;47;43;
63305;PMS5003;50735;52.060;1.248;2023-02-08T15:44:49;49;48;
63305;PMS5003;50735;52.060;1.248;2023-02-08T15:47:18;59;53;
63305;PMS5003;50735;52.060;1.248;2023-02-08T15:49:50;51;51;
63305;PMS5003;50735;52.060;1.248;2023-02-08T15:52:19;46;45;
63305;PMS5003;50735;52.060;1.248;2023-02-08T15:54:48;60;51;
63305;PMS5003;50735;52.060;1.248;2023-02-08T15:57:18;55;49;
63305;PMS5003;50735;52.060;1.248;2023-02-08T15:59:54;56;49;
63305;PMS5003;50735;52.060;1.248;2023-02-08T16:02:22;54;50;
63305;PMS5003;50735;52.060;1.248;2023-02-08T16:04:52;58;48;
63305;PMS5003;50735;52.060;1.248;2023-02-08T16:07:22;64;56;
63305;PMS5003;50735;52.060;1.248;2023-02-08T16:09:54;61;53;
63305;PMS5003;50735;52.060;1.248;2023-02-08T16:12:23;56;54;
63305;PMS5003;50735;52.060;1.248;2023-02-08T16:14:53;56;54;
63305;PMS5003;50735;52.060;1.248;2023-02-08T16:17:30;54;52;
63305;PMS5003;50735;52.060;1.248;2023-02-08T16:20:02;57;51;
63305;PMS5003;50735;52.060;1.248;2023-02-08T16:22:52;59;51;
63305;PMS5003;50735;52.060;1.248;2023-02-08T16:25:21;60;52;
63305;PMS5003;50735;52.060;1.248;2023-02-08T16:27:49;71;60;
63305;PMS5003;50735;52.060;1.248;2023-02-08T16:30:17;37;36;
63305;PMS5003;50735;52.060;1.248;2023-02-08T16:32:46;57;50;
63305;PMS5003;50735;52.060;1.248;2023-02-08T16:35:17;53;48;
63305;PMS5003;50735;52.060;1.248;2023-02-08T16:37:52;59;53;
63305;PMS5003;50735;52.060;1.248;2023-02-08T16:40:38;59;55;